^^
Your Local Weather - Clay, NY Station Historical Data
Daily Summary for July 26, 2017 Units:  English    Metric   Both
« Previous Day
Next Day »
Daily Weekly Monthly Yearly Custom
  High: Low: Average:
Temperature: 73.7 °F 61.5 °F 66.7 °F
Dew Point: 62.9 °F 58.1 °F 60.2 °F
Humidity: 94% 60% 81%
Wind Speed: 5.0mph 0.0mph 1.3mph
Wind Gust: 10.0mph - -
Wind- - SSW
Pressure: 30.21 in 29.94 in -
Precipitation: 0.00 in    
Historical Graphs
 
 
Tabular Data for July 26, 2017
Time Temperature Dew Point Pressure Wind Wind Speed Wind Gust Humidity Rainfall Rate (Hourly) solar
00:00 62.5 °F 60.1 °F 30.18 in Calm     92% 0.00 in 0 W/m2
00:06 62.5 °F 60.1 °F 30.18 in Calm     92% 0.00 in 0 W/m2
00:12 62.4 °F 60.0 °F 30.18 in Calm     92% 0.00 in 0 W/m2
00:18 62.4 °F 60.0 °F 30.18 in Calm     92% 0.00 in 0 W/m2
00:26 62.4 °F 60.0 °F 30.18 in Calm     92% 0.00 in 0 W/m2
00:32 62.4 °F 60.0 °F 30.19 in Calm     92% 0.00 in 0 W/m2
00:38 62.4 °F 60.0 °F 30.19 in Calm     92% 0.00 in 0 W/m2
00:44 62.4 °F 60.0 °F 30.19 in Calm     92% 0.00 in 0 W/m2
00:50 62.4 °F 60.3 °F 30.18 in Calm     93% 0.00 in 0 W/m2
00:56 62.4 °F 60.3 °F 30.19 in Calm     93% 0.00 in 0 W/m2
01:02 62.3 °F 60.2 °F 30.18 in Calm     93% 0.00 in 0 W/m2
01:08 62.3 °F 60.2 °F 30.18 in Calm     93% 0.00 in 0 W/m2
01:14 62.3 °F 60.2 °F 30.18 in Calm     93% 0.00 in 0 W/m2
01:20 62.3 °F 60.2 °F 30.18 in Calm     93% 0.00 in 0 W/m2
01:26 62.3 °F 60.2 °F 30.18 in Calm     93% 0.00 in 0 W/m2
01:32 62.2 °F 60.2 °F 30.18 in Calm     93% 0.00 in 0 W/m2
01:38 62.2 °F 60.2 °F 30.18 in Calm     93% 0.00 in 0 W/m2
01:44 62.2 °F 60.2 °F 30.18 in Calm     93% 0.00 in 0 W/m2
01:50 62.2 °F 60.2 °F 30.18 in Calm     93% 0.00 in 0 W/m2
01:56 62.2 °F 60.2 °F 30.18 in Calm     93% 0.00 in 0 W/m2
02:02 62.1 °F 60.1 °F 30.18 in Calm     93% 0.00 in 0 W/m2
02:08 62.0 °F 60.0 °F 30.18 in Calm     93% 0.00 in 0 W/m2
02:14 62.0 °F 60.0 °F 30.17 in Calm     93% 0.00 in 0 W/m2
02:20 61.9 °F 59.9 °F 30.17 in Calm     93% 0.00 in 0 W/m2
02:26 62.0 °F 60.0 °F 30.17 in Calm     93% 0.00 in 0 W/m2
02:32 61.9 °F 59.9 °F 30.17 in Calm     93% 0.00 in 0 W/m2
02:38 62.0 °F 60.0 °F 30.17 in Calm     93% 0.00 in 0 W/m2
02:44 62.0 °F 60.0 °F 30.17 in Calm     93% 0.00 in 0 W/m2
02:50 62.0 °F 60.0 °F 30.17 in Calm     93% 0.00 in 0 W/m2
02:56 62.0 °F 60.0 °F 30.17 in Calm     93% 0.00 in 0 W/m2
03:02 61.9 °F 59.9 °F 30.17 in Calm     93% 0.00 in 0 W/m2
03:08 61.9 °F 59.9 °F 30.18 in Calm   1.0 mph 93% 0.00 in 0 W/m2
03:14 61.9 °F 59.9 °F 30.18 in Calm     93% 0.00 in 0 W/m2
03:20 61.9 °F 59.9 °F 30.18 in Calm   1.0 mph 93% 0.00 in 0 W/m2
03:26 61.9 °F 59.9 °F 30.17 in Calm   2.0 mph 93% 0.00 in 0 W/m2
03:32 61.9 °F 59.9 °F 30.18 in WSW 1.0 mph 1.0 mph 93% 0.00 in 0 W/m2
03:38 61.9 °F 59.9 °F 30.18 in Calm   1.0 mph 93% 0.00 in 0 W/m2
03:44 61.9 °F 59.9 °F 30.18 in Calm     93% 0.00 in 0 W/m2
03:50 61.9 °F 59.9 °F 30.18 in Calm     93% 0.00 in 0 W/m2
03:56 61.8 °F 59.8 °F 30.18 in Calm     93% 0.00 in 0 W/m2
04:02 62.0 °F 60.0 °F 30.18 in Calm     93% 0.00 in 0 W/m2
04:08 62.0 °F 60.0 °F 30.18 in Calm     93% 0.00 in 0 W/m2
04:14 61.9 °F 59.9 °F 30.18 in Calm     93% 0.00 in 0 W/m2
04:20 61.9 °F 59.9 °F 30.18 in Calm     93% 0.00 in 0 W/m2
04:26 61.8 °F 59.8 °F 30.18 in Calm     93% 0.00 in 0 W/m2
04:32 61.7 °F 59.7 °F 30.18 in Calm     93% 0.00 in 0 W/m2
04:38 61.7 °F 59.7 °F 30.17 in Calm     93% 0.00 in 0 W/m2
04:44 61.7 °F 59.7 °F 30.17 in Calm     93% 0.00 in 0 W/m2
04:50 61.7 °F 59.7 °F 30.17 in Calm     93% 0.00 in 0 W/m2
04:56 61.6 °F 59.6 °F 30.17 in Calm     93% 0.00 in 0 W/m2
05:02 61.6 °F 59.6 °F 30.17 in Calm     93% 0.00 in 0 W/m2
05:08 61.6 °F 59.6 °F 30.17 in Calm     93% 0.00 in 0 W/m2
05:14 61.6 °F 59.6 °F 30.17 in Calm     93% 0.00 in 0 W/m2
05:20 61.6 °F 59.9 °F 30.17 in Calm     94% 0.00 in 0 W/m2
05:26 61.6 °F 59.9 °F 30.17 in Calm     94% 0.00 in 0 W/m2
05:32 61.6 °F 59.9 °F 30.17 in Calm     94% 0.00 in 0 W/m2
05:38 61.6 °F 59.9 °F 30.18 in Calm     94% 0.00 in 0 W/m2
05:44 61.6 °F 59.9 °F 30.18 in Calm     94% 0.00 in 0 W/m2
05:50 61.6 °F 59.9 °F 30.18 in Calm     94% 0.00 in 0 W/m2
05:56 61.5 °F 59.5 °F 30.18 in Calm     93% 0.00 in 0 W/m2
06:02 61.6 °F 59.9 °F 30.18 in Calm     94% 0.00 in 5 W/m2
06:08 61.5 °F 59.8 °F 30.18 in Calm     94% 0.00 in 5 W/m2
06:14 61.5 °F 59.8 °F 30.18 in Calm     94% 0.00 in 7 W/m2
06:20 61.5 °F 59.8 °F 30.19 in Calm     94% 0.00 in 9 W/m2
06:26 61.6 °F 59.9 °F 30.19 in Calm     94% 0.00 in 12 W/m2
06:32 61.7 °F 60.0 °F 30.20 in Calm     94% 0.00 in 16 W/m2
06:38 61.8 °F 60.1 °F 30.20 in Calm     94% 0.00 in 23 W/m2
06:44 61.8 °F 60.1 °F 30.20 in Calm     94% 0.00 in 28 W/m2
06:50 61.8 °F 60.1 °F 30.20 in Calm     94% 0.00 in 33 W/m2
06:56 61.9 °F 60.2 °F 30.20 in Calm     94% 0.00 in 39 W/m2
07:04 62.0 °F 60.3 °F 30.20 in Calm     94% 0.00 in 44 W/m2
07:10 62.1 °F 60.4 °F 30.20 in Calm     94% 0.00 in 53 W/m2
07:16 62.2 °F 60.5 °F 30.20 in Calm     94% 0.00 in 54 W/m2
07:22 62.5 °F 60.7 °F 30.20 in Calm     94% 0.00 in 56 W/m2
07:28 62.6 °F 60.8 °F 30.21 in Calm     94% 0.00 in 62 W/m2
07:34 62.7 °F 60.9 °F 30.21 in Calm     94% 0.00 in 74 W/m2
07:40 62.8 °F 61.0 °F 30.21 in Calm     94% 0.00 in 77 W/m2
07:46 62.9 °F 61.1 °F 30.21 in Calm     94% 0.00 in 93 W/m2
07:52 63.1 °F 61.3 °F 30.21 in Calm     94% 0.00 in 107 W/m2
07:58 63.3 °F 61.2 °F 30.21 in Calm   1.0 mph 93% 0.00 in 118 W/m2
08:04 63.4 °F 61.3 °F 30.21 in Calm     93% 0.00 in 120 W/m2
08:10 63.6 °F 61.2 °F 30.21 in Calm     92% 0.00 in 135 W/m2
08:16 63.7 °F 61.0 °F 30.21 in Calm   1.0 mph 91% 0.00 in 149 W/m2
08:22 64.0 °F 61.0 °F 30.20 in Calm     90% 0.00 in 176 W/m2
08:28 64.4 °F 61.1 °F 30.20 in Calm   3.0 mph 89% 0.00 in 162 W/m2
08:34 64.6 °F 61.0 °F 30.19 in South 1.0 mph 1.0 mph 88% 0.00 in 148 W/m2
08:40 64.7 °F 60.7 °F 30.19 in South 1.0 mph 2.0 mph 87% 0.00 in 63 W/m2
08:46 64.5 °F 60.5 °F 30.18 in WSW 1.0 mph 2.0 mph 87% 0.00 in 44 W/m2
08:52 64.1 °F 60.5 °F 30.19 in WSW 1.0 mph 1.0 mph 88% 0.00 in 76 W/m2
08:58 64.1 °F 60.5 °F 30.18 in Calm   1.0 mph 88% 0.00 in 97 W/m2
09:04 64.1 °F 60.5 °F 30.18 in SSW 1.0 mph 2.0 mph 88% 0.00 in 116 W/m2
09:10 64.3 °F 60.0 °F 30.19 in SSW 1.0 mph 1.0 mph 86% 0.00 in 141 W/m2
09:16 64.6 °F 60.3 °F 30.19 in SSW 1.0 mph 1.0 mph 86% 0.00 in 160 W/m2
09:22 65.0 °F 60.4 °F 30.18 in SSE 1.0 mph 1.0 mph 85% 0.00 in 197 W/m2
09:28 65.4 °F 60.1 °F 30.18 in South 2.0 mph 2.0 mph 83% 0.00 in 244 W/m2
09:34 65.8 °F 60.5 °F 30.18 in South 2.0 mph 4.0 mph 83% 0.00 in 253 W/m2
09:40 66.3 °F 60.6 °F 30.18 in ESE 1.0 mph 1.0 mph 82% 0.00 in 246 W/m2
09:46 66.6 °F 60.2 °F 30.17 in SSE 1.0 mph 3.0 mph 80% 0.00 in 214 W/m2
09:52 66.4 °F 59.3 °F 30.18 in South 3.0 mph 5.0 mph 78% 0.00 in 206 W/m2
09:58 66.4 °F 59.7 °F 30.17 in South 4.0 mph 5.0 mph 79% 0.00 in 211 W/m2
10:04 66.4 °F 59.3 °F 30.17 in South 3.0 mph 4.0 mph 78% 0.00 in 250 W/m2
10:10 66.7 °F 59.6 °F 30.16 in SW 2.0 mph 2.0 mph 78% 0.00 in 301 W/m2
10:16 67.3 °F 60.6 °F 30.16 in SW 1.0 mph 2.0 mph 79% 0.00 in 360 W/m2
10:22 67.8 °F 60.3 °F 30.15 in South 1.0 mph 1.0 mph 77% 0.00 in 512 W/m2
10:28 68.7 °F 59.7 °F 30.15 in SE 1.0 mph 4.0 mph 73% 0.00 in 506 W/m2
10:34 68.6 °F 60.0 °F 30.15 in South 1.0 mph 3.0 mph 74% 0.00 in 445 W/m2
10:40 68.6 °F 58.8 °F 30.15 in SSE 2.0 mph 3.0 mph 71% 0.00 in 297 W/m2
10:46 68.7 °F 59.7 °F 30.15 in East 1.0 mph 3.0 mph 73% 0.00 in 181 W/m2
10:52 68.2 °F 58.4 °F 30.15 in ESE 1.0 mph 3.0 mph 71% 0.00 in 179 W/m2
10:58 67.8 °F 58.1 °F 30.15 in South 3.0 mph 5.0 mph 71% 0.00 in 209 W/m2
11:04 68.0 °F 59.4 °F 30.15 in SE 3.0 mph 3.0 mph 74% 0.00 in 262 W/m2
11:10 68.2 °F 59.6 °F 30.15 in SSE 2.0 mph 3.0 mph 74% 0.00 in 207 W/m2
11:16 68.3 °F 58.9 °F 30.15 in South 2.0 mph 4.0 mph 72% 0.00 in 148 W/m2
11:22 68.1 °F 59.1 °F 30.15 in SSW 3.0 mph 3.0 mph 73% 0.00 in 102 W/m2
11:28 68.0 °F 59.4 °F 30.15 in South 3.0 mph 5.0 mph 74% 0.00 in 227 W/m2
11:34 68.2 °F 59.6 °F 30.15 in SW 3.0 mph 4.0 mph 74% 0.00 in 311 W/m2
11:40 68.6 °F 60.0 °F 30.15 in SSE 3.0 mph 3.0 mph 74% 0.00 in 341 W/m2
11:46 68.9 °F 59.5 °F 30.14 in SE 3.0 mph 7.0 mph 72% 0.00 in 237 W/m2
11:52 68.9 °F 58.7 °F 30.15 in South 4.0 mph 4.0 mph 70% 0.00 in 362 W/m2
11:58 69.3 °F 59.5 °F 30.14 in SSE 4.0 mph 7.0 mph 71% 0.00 in 294 W/m2
12:04 69.3 °F 59.5 °F 30.15 in WSW 4.0 mph 4.0 mph 71% 0.00 in 336 W/m2
12:10 69.4 °F 59.2 °F 30.15 in SE 4.0 mph 4.0 mph 70% 0.00 in 385 W/m2
12:16 69.6 °F 58.6 °F 30.14 in SSW 4.0 mph 10.0 mph 68% 0.00 in 388 W/m2
12:22 69.8 °F 59.6 °F 30.14 in SSW 4.0 mph 4.0 mph 70% 0.00 in 415 W/m2
12:28 69.9 °F 58.9 °F 30.14 in SW 3.0 mph 6.0 mph 68% 0.00 in 557 W/m2
12:34 70.3 °F 59.6 °F 30.14 in SW 3.0 mph 4.0 mph 69% 0.00 in 445 W/m2
12:40 70.3 °F 58.4 °F 30.13 in South 4.0 mph 4.0 mph 66% 0.00 in 429 W/m2
12:46 70.3 °F 59.6 °F 30.13 in SSE 4.0 mph 5.0 mph 69% 0.00 in 446 W/m2
12:52 70.5 °F 58.6 °F 30.13 in South 4.0 mph 5.0 mph 66% 0.00 in 466 W/m2
12:58 70.7 °F 60.0 °F 30.12 in SSW 3.0 mph 5.0 mph 69% 0.00 in 343 W/m2
13:04 70.3 °F 58.4 °F 30.13 in SW 4.0 mph 7.0 mph 66% 0.00 in 290 W/m2
13:10 70.0 °F 59.0 °F 30.13 in SSW 5.0 mph 5.0 mph 68% 0.00 in 185 W/m2
13:16 69.9 °F 60.1 °F 30.13 in SSW 3.0 mph 5.0 mph 71% 0.00 in 265 W/m2
13:22 69.9 °F 58.9 °F 30.13 in SSW 3.0 mph 5.0 mph 68% 0.00 in 274 W/m2
13:28 70.0 °F 59.4 °F 30.13 in SW 3.0 mph 5.0 mph 69% 0.00 in 313 W/m2
13:34 70.4 °F 60.1 °F 30.13 in SSE 2.0 mph 3.0 mph 70% 0.00 in 313 W/m2
13:40 70.5 °F 59.0 °F 30.13 in SW 3.0 mph 3.0 mph 67% 0.00 in 276 W/m2
13:46 70.3 °F 59.2 °F 30.13 in South 3.0 mph 6.0 mph 68% 0.00 in 323 W/m2
13:52 70.4 °F 59.7 °F 30.13 in South 4.0 mph 5.0 mph 69% 0.00 in 387 W/m2
13:58 70.9 °F 60.2 °F 30.12 in South 4.0 mph 7.0 mph 69% 0.00 in 482 W/m2
14:04 71.5 °F 60.4 °F 30.12 in WSW 4.0 mph 4.0 mph 68% 0.00 in 791 W/m2
14:10 72.7 °F 61.5 °F 30.12 in SSE 3.0 mph 7.0 mph 68% 0.00 in 1020 W/m2
14:16 72.3 °F 60.3 °F 30.12 in SW 4.0 mph 8.0 mph 66% 0.00 in 1090 W/m2
14:22 72.3 °F 60.7 °F 30.11 in South 5.0 mph 8.0 mph 67% 0.00 in 995 W/m2
14:28 72.6 °F 59.3 °F 30.10 in South 5.0 mph 8.0 mph 63% 0.00 in 404 W/m2
14:34 72.2 °F 59.8 °F 30.10 in SW 4.0 mph 7.0 mph 65% 0.00 in 248 W/m2
14:40 71.7 °F 59.3 °F 30.10 in SSE 3.0 mph 3.0 mph 65% 0.00 in 265 W/m2
14:46 72.0 °F 59.6 °F 30.10 in SW 3.0 mph 5.0 mph 65% 0.00 in 401 W/m2
14:52 72.3 °F 60.7 °F 30.10 in SSW 3.0 mph 3.0 mph 67% 0.00 in 573 W/m2
14:58 72.7 °F 58.9 °F 30.09 in SW 4.0 mph 6.0 mph 62% 0.00 in 445 W/m2
15:04 72.6 °F 58.4 °F 30.09 in SSW 4.0 mph 9.0 mph 61% 0.00 in 355 W/m2
15:10 72.5 °F 59.6 °F 30.09 in SSW 4.0 mph 4.0 mph 64% 0.00 in 413 W/m2
15:16 72.7 °F 60.7 °F 30.09 in South 3.0 mph 6.0 mph 66% 0.00 in 408 W/m2
15:22 72.7 °F 59.8 °F 30.09 in SW 3.0 mph 4.0 mph 64% 0.00 in 345 W/m2
15:28 72.9 °F 59.1 °F 30.08 in South 3.0 mph 5.0 mph 62% 0.00 in 366 W/m2
15:34 72.8 °F 59.5 °F 30.08 in South 4.0 mph 4.0 mph 63% 0.00 in 417 W/m2
15:40 73.1 °F 60.6 °F 30.08 in SSE 4.0 mph 7.0 mph 65% 0.00 in 396 W/m2
15:46 73.3 °F 60.8 °F 30.07 in SSE 5.0 mph 9.0 mph 65% 0.00 in 476 W/m2
15:52 73.1 °F 59.8 °F 30.07 in South 5.0 mph 5.0 mph 63% 0.00 in 311 W/m2
15:58 73.2 °F 59.8 °F 30.06 in SSE 3.0 mph 6.0 mph 63% 0.00 in 406 W/m2
16:04 73.1 °F 60.2 °F 30.07 in WSW 4.0 mph 6.0 mph 64% 0.00 in 374 W/m2
16:10 73.5 °F 60.6 °F 30.06 in WSW 3.0 mph 3.0 mph 64% 0.00 in 366 W/m2
16:16 73.7 °F 59.9 °F 30.06 in WSW 3.0 mph 6.0 mph 62% 0.00 in 345 W/m2
16:22 73.6 °F 60.2 °F 30.05 in SSE 3.0 mph 3.0 mph 63% 0.00 in 302 W/m2
16:28 73.3 °F 59.5 °F 30.05 in SSE 3.0 mph 3.0 mph 62% 0.00 in 276 W/m2
16:34 73.2 °F 59.8 °F 30.04 in SSW 3.0 mph 4.0 mph 63% 0.00 in 329 W/m2
16:40 73.4 °F 59.6 °F 30.05 in SW 4.0 mph 4.0 mph 62% 0.00 in 313 W/m2
16:46 73.4 °F 59.6 °F 30.04 in South 4.0 mph 5.0 mph 62% 0.00 in 323 W/m2
16:52 73.5 °F 60.6 °F 30.04 in South 4.0 mph 5.0 mph 64% 0.00 in 267 W/m2
16:58 73.3 °F 59.5 °F 30.04 in South 4.0 mph 5.0 mph 62% 0.00 in 237 W/m2
17:04 73.1 °F 60.2 °F 30.04 in South 4.0 mph 9.0 mph 64% 0.00 in 220 W/m2
17:10 73.0 °F 60.1 °F 30.03 in SSW 4.0 mph 4.0 mph 64% 0.00 in 204 W/m2
17:16 72.9 °F 59.6 °F 30.02 in South 4.0 mph 4.0 mph 63% 0.00 in 209 W/m2
17:22 72.9 °F 59.1 °F 30.02 in SSW 5.0 mph 7.0 mph 62% 0.00 in 243 W/m2
17:28 73.2 °F 59.4 °F 30.02 in SW 4.0 mph 7.0 mph 62% 0.00 in 241 W/m2
17:34 73.4 °F 59.1 °F 30.03 in SSW 3.0 mph 4.0 mph 61% 0.00 in 221 W/m2
17:40 73.6 °F 58.9 °F 30.04 in SSW 3.0 mph 3.0 mph 60% 0.00 in 207 W/m2
17:46 73.7 °F 59.4 °F 30.04 in SSE 3.0 mph 5.0 mph 61% 0.00 in 188 W/m2
17:52 73.6 °F 60.2 °F 30.04 in South 2.0 mph 3.0 mph 63% 0.00 in 181 W/m2
17:58 73.6 °F 59.8 °F 30.03 in SW 2.0 mph 4.0 mph 62% 0.00 in 183 W/m2
18:04 73.6 °F 59.8 °F 30.03 in South 2.0 mph 4.0 mph 62% 0.00 in 167 W/m2
18:10 73.6 °F 59.8 °F 30.03 in SSW 2.0 mph 2.0 mph 62% 0.00 in 135 W/m2
18:16 73.5 °F 60.1 °F 30.04 in West 1.0 mph 2.0 mph 63% 0.00 in 105 W/m2
18:22 73.3 °F 59.5 °F 30.04 in WSW 2.0 mph 5.0 mph 62% 0.00 in 100 W/m2
18:28 73.2 °F 59.8 °F 30.03 in SSW 2.0 mph 5.0 mph 63% 0.00 in 95 W/m2
18:34 73.0 °F 60.1 °F 30.03 in SSW 1.0 mph 2.0 mph 64% 0.00 in 88 W/m2
18:40 73.0 °F 60.1 °F 30.03 in Calm     64% 0.00 in 81 W/m2
18:46 73.0 °F 60.1 °F 30.03 in Calm   2.0 mph 64% 0.00 in 74 W/m2
18:52 72.8 °F 59.9 °F 30.03 in SSW 1.0 mph 2.0 mph 64% 0.00 in 72 W/m2
18:58 72.7 °F 60.3 °F 30.03 in SSW 1.0 mph 2.0 mph 65% 0.00 in 69 W/m2
19:04 72.6 °F 59.7 °F 30.03 in South 1.0 mph 3.0 mph 64% 0.00 in 60 W/m2
19:10 72.5 °F 61.3 °F 30.02 in South 1.0 mph 1.0 mph 68% 0.00 in 56 W/m2
19:16 72.0 °F 61.3 °F 30.02 in Calm   1.0 mph 69% 0.00 in 56 W/m2
19:22 71.5 °F 62.8 °F 30.02 in Calm     74% 0.00 in 54 W/m2
19:28 71.0 °F 61.9 °F 30.02 in Calm     73% 0.00 in 51 W/m2
19:34 70.6 °F 62.3 °F 30.02 in Calm     75% 0.00 in 44 W/m2
19:40 70.4 °F 62.8 °F 30.02 in Calm     77% 0.00 in 35 W/m2
19:46 70.1 °F 62.6 °F 30.02 in Calm     77% 0.00 in 32 W/m2
19:52 69.7 °F 62.2 °F 30.02 in Calm     77% 0.00 in 21 W/m2
19:58 69.5 °F 62.3 °F 30.03 in Calm     78% 0.00 in 19 W/m2
20:04 69.3 °F 62.9 °F 30.03 in Calm     80% 0.00 in 23 W/m2
20:10 68.9 °F 62.8 °F 30.03 in Calm     81% 0.00 in 23 W/m2
20:16 68.4 °F 62.7 °F 30.02 in Calm     82% 0.00 in 11 W/m2
20:22 68.2 °F 62.1 °F 30.02 in Calm     81% 0.00 in 0 W/m2
20:28 68.0 °F 62.6 °F 30.02 in Calm     83% 0.00 in 0 W/m2
20:34 67.6 °F 62.3 °F 30.02 in Calm     83% 0.00 in 0 W/m2
20:40 67.3 °F 62.0 °F 30.02 in Calm     83% 0.00 in 0 W/m2
20:46 67.2 °F 61.9 °F 30.02 in Calm     83% 0.00 in 0 W/m2
20:52 67.1 °F 62.1 °F 30.02 in Calm     84% 0.00 in 0 W/m2
21:00 66.9 °F 62.2 °F 30.01 in Calm     85% 0.00 in 0 W/m2
21:06 66.5 °F 61.5 °F 30.01 in Calm     84% 0.00 in 0 W/m2
21:12 66.3 °F 61.3 °F 30.01 in Calm     84% 0.00 in 0 W/m2
21:18 66.0 °F 61.4 °F 30.01 in Calm     85% 0.00 in 0 W/m2
21:24 65.8 °F 61.2 °F 30.01 in Calm     85% 0.00 in 0 W/m2
21:30 65.6 °F 61.0 °F 30.01 in Calm     85% 0.00 in 0 W/m2
21:36 65.4 °F 61.1 °F 30.01 in Calm     86% 0.00 in 0 W/m2
21:42 65.2 °F 60.9 °F 30.01 in Calm     86% 0.00 in 0 W/m2
21:48 65.1 °F 60.8 °F 30.01 in Calm     86% 0.00 in 0 W/m2
21:54 64.9 °F 60.6 °F 30.01 in Calm     86% 0.00 in 0 W/m2
22:00 64.8 °F 60.8 °F 30.00 in Calm     87% 0.00 in 0 W/m2
22:06 64.8 °F 61.2 °F 29.99 in Calm     88% 0.00 in 0 W/m2
22:12 64.7 °F 60.7 °F 29.99 in Calm     87% 0.00 in 0 W/m2
22:18 64.7 °F 60.7 °F 30.00 in Calm     87% 0.00 in 0 W/m2
22:24 64.6 °F 60.6 °F 30.00 in Calm     87% 0.00 in 0 W/m2
22:30 64.5 °F 60.5 °F 29.99 in Calm     87% 0.00 in 0 W/m2
22:36 64.5 °F 60.5 °F 29.99 in Calm     87% 0.00 in 0 W/m2
22:42 64.5 °F 60.9 °F 29.99 in Calm     88% 0.00 in 0 W/m2
22:48 64.4 °F 60.8 °F 29.99 in Calm     88% 0.00 in 0 W/m2
22:54 64.4 °F 60.8 °F 29.99 in Calm     88% 0.00 in 0 W/m2
23:00 64.4 °F 60.8 °F 29.98 in Calm     88% 0.00 in 0 W/m2
23:06 64.4 °F 61.1 °F 29.98 in Calm     89% 0.00 in 0 W/m2
23:12 64.4 °F 61.1 °F 29.97 in Calm     89% 0.00 in 0 W/m2
23:18 64.4 °F 61.1 °F 29.96 in Calm     89% 0.00 in 0 W/m2
23:24 64.6 °F 61.0 °F 29.96 in Calm   3.0 mph 88% 0.00 in 0 W/m2
23:30 65.0 °F 61.4 °F 29.94 in Calm   1.0 mph 88% 0.00 in 0 W/m2
23:36 65.6 °F 61.0 °F 29.94 in SSE 1.0 mph 1.0 mph 85% 0.00 in 0 W/m2
23:42 66.1 °F 60.8 °F 29.94 in SSE 1.0 mph 2.0 mph 83% 0.00 in 0 W/m2
23:48 66.7 °F 61.0 °F 29.94 in Calm   2.0 mph 82% 0.00 in 0 W/m2
23:54 66.8 °F 61.1 °F 29.94 in Calm     82% 0.00 in 0 W/m2
Country Meadow, Clay, NY, USA
Compliments of Weather Underground - 2 mb